If you wish to contribute or participate in the discussions about articles you are invited to join SKYbrary as a registered user

 Actions

Ain Arnat Airport

From SKYbrary Wiki

DAAS
Airport
ICAO: DAAS – IATA: QSF
Summary
Name Ain Arnat Airport
Region Africa
Territory Algeria DZ.gif
Location , Setif
Serving Setif
Elevation 1,024.128 m
3,360 ft
3,360 ft1,024.128 m
Type medium airport
Coordinates 36° 10' 41.16" N, 5° 19' 28.16" E
Runways
Designator Length Width Surface ROPS


METAR
Observation DAAS 220900Z 32004KT 9999 FEW030 05/01 Q1030
Station Setif
Date/Time 22 February 2019 09:00:00
Wind direction 320°
Wind speed 04 kts
Lowest cloud amount few clouds
Temperature 5°C
Dew point 1°C
Humidity 75%
QNH 1030 hPa
Weather condition n/a